Time;durP1;ratioP1;P1;durP2;ratioP2;P2;SDS_P1;SDS_P2;PMS_P1;PMS_P2;Temp;Humidity;BMP_temperature;BMP_pressure;BME280_temperature;BME280_humidity;BME280_pressure;Samples;Min_cycle;Max_cycle;Signal;HPM_P1;HPM_P2
2022/05/21 00:00:26;;;;;;;7.90;5.47;;;;;;;9.95;100.00;101571.78;2086689;28;46839;-65
2022/05/21 00:01:28;;;;;;;8.52;6.20;;;;;;;9.90;100.00;101574.47;2086788;28;43065;-65
2022/05/21 00:02:30;;;;;;;5.85;5.20;;;;;;;9.86;100.00;101572.75;2087806;28;43241;-65
2022/05/21 00:03:32;;;;;;;6.03;5.35;;;;;;;9.86;100.00;101575.41;2087302;28;45974;-65
2022/05/21 00:04:36;;;;;;;7.88;5.95;;;;;;;9.83;100.00;101579.91;2088872;28;20667;-65
2022/05/21 00:05:41;;;;;;;7.72;5.90;;;;;;;9.84;100.00;101579.03;2087708;28;20819;-65
2022/05/21 00:06:43;;;;;;;9.25;6.45;;;;;;;9.80;100.00;101583.53;2087157;28;43470;-65
2022/05/21 00:07:45;;;;;;;7.72;5.55;;;;;;;9.81;100.00;101579.91;2087835;28;32003;-65
2022/05/21 00:08:46;;;;;;;6.95;5.57;;;;;;;9.79;100.00;101573.72;2087211;28;46990;-65
2022/05/21 00:09:48;;;;;;;7.40;5.82;;;;;;;9.79;100.00;101579.06;2086724;28;45481;-65
2022/05/21 00:10:50;;;;;;;7.20;5.35;;;;;;;9.75;100.00;101572.84;2087478;28;45149;-65
2022/05/21 00:11:51;;;;;;;6.70;5.30;;;;;;;9.73;100.00;101590.69;2087688;28;29467;-65
2022/05/21 00:12:54;;;;;;;8.60;5.50;;;;;;;9.72;100.00;101582.69;2087260;28;38104;-65
2022/05/21 00:13:56;;;;;;;7.28;5.50;;;;;;;9.73;100.00;101581.81;2078638;28;46348;-65
2022/05/21 00:14:58;;;;;;;7.45;5.32;;;;;;;9.72;100.00;101594.25;2087850;28;44925;-65
2022/05/21 00:16:00;;;;;;;6.60;5.63;;;;;;;9.70;100.00;101588.03;2078080;28;45387;-65
2022/05/21 00:17:03;;;;;;;6.18;5.57;;;;;;;9.68;100.00;101591.66;2078845;28;44087;-65
2022/05/21 00:18:06;;;;;;;8.60;5.78;;;;;;;9.67;100.00;101590.78;2086736;28;45534;-65
2022/05/21 00:19:07;;;;;;;8.27;5.88;;;;;;;9.69;100.00;101577.34;2086394;28;46063;-65
2022/05/21 00:20:47;;;;;;;6.82;6.13;;;;;;;9.66;100.00;101583.63;2086383;28;43058;-65
2022/05/21 00:21:33;;;;;;;8.00;5.93;;;;;;;9.62;100.00;101583.66;2087313;28;43338;-65
2022/05/21 00:22:34;;;;;;;9.93;6.30;;;;;;;9.63;100.00;101572.97;2087527;28;44315;-65
2022/05/21 00:23:37;;;;;;;9.77;6.28;;;;;;;9.61;100.00;101582.78;2087652;28;45619;-65
2022/05/21 00:24:38;;;;;;;6.82;5.57;;;;;;;9.61;100.00;101587.25;2087440;28;45971;-65
2022/05/21 00:25:42;;;;;;;8.07;5.65;;;;;;;9.58;100.00;101584.59;2087420;28;44344;-65
2022/05/21 00:26:44;;;;;;;6.72;6.13;;;;;;;9.56;100.00;101584.59;2086827;28;44080;-65
2022/05/21 00:27:46;;;;;;;8.88;5.45;;;;;;;9.55;100.00;101585.53;2079697;28;20044;-65
2022/05/21 00:28:49;;;;;;;7.30;6.10;;;;;;;9.57;100.00;101590.84;2079967;28;32957;-65
2022/05/21 00:29:51;;;;;;;11.45;6.60;;;;;;;9.53;100.00;101593.56;2087172;28;46339;-65
2022/05/21 00:30:54;;;;;;;9.40;6.00;;;;;;;9.52;100.00;101597.09;2086938;28;44663;-65
2022/05/21 00:31:56;;;;;;;9.50;6.00;;;;;;;9.49;100.00;101597.16;2087084;28;45337;-66
2022/05/21 00:32:59;;;;;;;9.70;5.85;;;;;;;9.49;100.00;101596.25;2086755;28;46013;-66
2022/05/21 00:34:01;;;;;;;8.93;6.20;;;;;;;9.49;100.00;101591.81;2086821;28;43956;-66
2022/05/21 00:35:04;;;;;;;9.10;6.35;;;;;;;9.47;100.00;101598.03;2078739;28;46906;-66
2022/05/21 00:36:07;;;;;;;9.05;6.45;;;;;;;9.45;100.00;101594.50;2087163;28;39629;-65
2022/05/21 00:37:09;;;;;;;10.00;6.40;;;;;;;9.41;100.00;101596.31;2078528;28;45531;-66
2022/05/21 00:38:11;;;;;;;10.52;6.78;;;;;;;9.41;100.00;101598.09;2078842;28;40081;-65
2022/05/21 00:39:13;;;;;;;9.18;5.90;;;;;;;9.43;100.00;101598.97;2087685;28;32188;-65
2022/05/21 00:40:14;;;;;;;8.52;5.72;;;;;;;9.42;100.00;101605.22;2087384;28;43320;-65
2022/05/21 00:41:20;;;;;;;8.25;6.35;;;;;;;9.39;100.00;101603.47;2087518;28;20041;-65
2022/05/21 00:42:22;;;;;;;8.13;6.03;;;;;;;9.37;100.00;101605.25;2086072;28;45647;-66
2022/05/21 00:43:46;;;;;;;7.20;6.05;;;;;;;9.34;100.00;101607.94;2078917;28;44754;-65
2022/05/21 00:44:48;;;;;;;9.40;5.78;;;;;;;9.31;100.00;101606.19;2087608;28;42861;-65
2022/05/21 00:45:50;;;;;;;7.68;6.45;;;;;;;9.30;100.00;101606.19;2087661;28;31655;-64
2022/05/21 00:46:51;;;;;;;8.18;6.50;;;;;;;9.30;100.00;101614.22;2086887;28;44859;-66
2022/05/21 00:47:53;;;;;;;7.95;6.30;;;;;;;9.26;100.00;101618.69;2087030;28;43728;-65
2022/05/21 00:49:25;;;;;;;7.88;6.90;;;;;;;9.31;100.00;101613.31;2086600;28;43646;-65
2022/05/21 00:50:29;;;;;;;10.32;6.75;;;;;;;9.29;100.00;101612.44;2087350;28;43298;-65
2022/05/21 00:52:05;;;;;;;11.20;7.25;;;;;;;9.29;100.00;101612.44;2077712;28;45245;-66
2022/05/21 00:53:06;;;;;;;15.07;8.18;;;;;;;9.29;100.00;101613.31;2081326;28;46185;-65
2022/05/21 00:54:09;;;;;;;14.65;9.63;;;;;;;9.29;100.00;101617.78;2086763;28;44322;-65
2022/05/21 00:55:22;;;;;;;13.93;10.02;;;;;;;9.28;100.00;101610.69;2079600;28;20935;-65
2022/05/21 00:56:36;;;;;;;9.80;8.00;;;;;;;9.31;100.00;101614.22;2082441;28;21033;-65
2022/05/21 00:57:44;;;;;;;11.52;8.25;;;;;;;9.32;100.00;101612.41;2087683;28;45636;-65
2022/05/21 01:00:22;;;;;;;14.60;9.23;;;;;;;9.35;100.00;101612.41;2084342;28;20172;-65
2022/05/21 01:01:30;;;;;;;13.82;8.70;;;;;;;9.34;100.00;101618.63;2083173;28;45590;-65
2022/05/21 01:02:48;;;;;;;13.10;9.52;;;;;;;9.35;100.00;101615.97;2088835;28;20038;-64
2022/05/21 01:03:50;;;;;;;10.02;8.20;;;;;;;9.33;100.00;101612.41;2087128;28;44248;-65
2022/05/21 01:04:51;;;;;;;12.25;9.30;;;;;;;9.33;100.00;101612.41;2087549;28;46796;-65
2022/05/21 01:05:57;;;;;;;12.85;9.52;;;;;;;9.32;100.00;101620.44;2086694;28;42721;-65
2022/05/21 01:07:02;;;;;;;12.77;9.75;;;;;;;9.37;100.00;101618.63;2086771;28;20087;-65
2022/05/21 01:08:04;;;;;;;12.98;10.02;;;;;;;9.37;100.00;101615.94;2071171;28;44309;-65
2022/05/21 01:09:08;;;;;;;12.60;9.52;;;;;;;9.38;100.00;101617.72;2078635;28;43933;-65
2022/05/21 01:10:13;;;;;;;15.63;10.18;;;;;;;9.38;100.00;101620.38;2087374;28;34970;-65
2022/05/21 01:11:19;;;;;;;13.40;10.65;;;;;;;9.42;100.00;101616.81;2086799;28;44708;-65
2022/05/21 01:12:28;;;;;;;14.88;10.38;;;;;;;9.42;100.00;101618.56;2077926;28;44041;-66
2022/05/21 01:13:34;;;;;;;16.25;10.85;;;;;;;9.45;100.00;101610.53;2080063;28;45924;-65
2022/05/21 01:14:37;;;;;;;22.88;11.27;;;;;;;9.46;100.00;101610.53;2086443;28;41175;-66
2022/05/21 01:15:48;;;;;;;16.00;9.98;;;;;;;9.43;100.00;101615.91;2078438;28;42091;-65
2022/05/21 01:16:51;;;;;;;14.07;10.30;;;;;;;9.45;100.00;101616.75;2079769;28;44568;-65
2022/05/21 01:17:52;;;;;;;14.93;9.40;;;;;;;9.41;100.00;101609.69;2087437;28;45566;-65
2022/05/21 01:18:56;;;;;;;16.10;10.25;;;;;;;9.41;100.00;101609.69;2087419;28;32026;-64
2022/05/21 01:20:03;;;;;;;14.90;11.15;;;;;;;9.46;100.00;101607.88;2087121;28;45312;-64
2022/05/21 01:21:06;;;;;;;17.83;10.07;;;;;;;9.43;100.00;101613.22;2086613;28;44480;-65
2022/05/21 01:22:08;;;;;;;14.52;10.85;;;;;;;9.43;100.00;101607.00;2086423;28;44346;-65
2022/05/21 01:23:12;;;;;;;15.60;10.73;;;;;;;9.43;100.00;101613.22;2086033;28;43281;-65
2022/05/21 01:24:16;;;;;;;15.40;10.77;;;;;;;9.43;100.00;101612.34;2087233;28;33308;-65
2022/05/21 01:25:25;;;;;;;13.02;9.45;;;;;;;9.40;100.00;101613.22;2086442;28;41983;-66
2022/05/21 01:26:27;;;;;;;17.60;11.15;;;;;;;9.47;100.00;101617.63;2086472;28;45645;-65
2022/05/21 01:27:29;;;;;;;17.15;11.20;;;;;;;9.47;100.00;101606.06;2087331;28;45153;-66
2022/05/21 01:28:34;;;;;;;16.88;11.05;;;;;;;9.48;100.00;101607.84;2086286;28;43744;-65
2022/05/21 01:29:36;;;;;;;17.00;10.90;;;;;;;9.49;100.00;101610.53;2086651;28;43573;-66
2022/05/21 01:30:46;;;;;;;12.68;10.88;;;;;;;9.53;100.00;101611.38;2086870;28;44262;-65
2022/05/21 01:31:53;;;;;;;14.25;10.57;;;;;;;9.54;100.00;101611.34;2086920;28;44168;-65
2022/05/21 01:32:57;;;;;;;17.95;10.60;;;;;;;9.55;100.00;101613.13;2078219;28;44282;-65
2022/05/21 01:33:59;;;;;;;18.50;10.43;;;;;;;9.58;100.00;101616.69;2078796;28;43205;-65
2022/05/21 01:35:01;;;;;;;15.80;10.57;;;;;;;9.58;100.00;101601.50;2085934;28;44069;-66
2022/05/21 01:36:06;;;;;;;14.40;10.80;;;;;;;9.61;100.00;101605.97;2078477;28;43066;-65
2022/05/21 01:37:08;;;;;;;16.60;10.20;;;;;;;9.64;100.00;101611.31;2070653;28;43092;-65
2022/05/21 01:38:14;;;;;;;16.35;10.40;;;;;;;9.65;100.00;101607.72;2078756;28;45943;-65
2022/05/21 01:39:16;;;;;;;13.50;9.75;;;;;;;9.67;100.00;101605.91;2086954;28;35237;-65
2022/05/21 01:40:17;;;;;;;18.90;10.48;;;;;;;9.68;100.00;101615.72;2087382;28;44793;-65
2022/05/21 01:41:19;;;;;;;16.40;10.10;;;;;;;9.66;100.00;101609.50;2086858;28;43714;-65
2022/05/21 01:42:21;;;;;;;14.52;9.60;;;;;;;9.67;100.00;101605.91;2086831;28;45872;-66
2022/05/21 01:44:45;;;;;;;15.95;9.75;;;;;;;9.65;100.00;101603.25;2087996;28;44153;-65
2022/05/21 01:45:48;;;;;;;13.82;9.63;;;;;;;9.66;100.00;101596.13;2086784;28;44223;-65
2022/05/21 01:46:51;;;;;;;16.50;9.50;;;;;;;9.64;100.00;101595.25;2087802;28;31003;-66
2022/05/21 01:47:52;;;;;;;17.77;10.48;;;;;;;9.62;100.00;101594.34;2088059;28;20052;-66
2022/05/21 01:48:54;;;;;;;14.32;9.27;;;;;;;9.62;100.00;101597.03;2087481;28;41053;-66
2022/05/21 01:49:56;;;;;;;12.55;9.18;;;;;;;9.59;100.00;101597.97;2078019;28;44664;-66
2022/05/21 01:50:58;;;;;;;14.75;9.35;;;;;;;9.60;100.00;101590.81;2070434;28;45337;-66
2022/05/21 01:52:02;;;;;;;13.43;10.00;;;;;;;9.63;100.00;101588.13;2078963;28;20783;-66
2022/05/21 01:53:05;;;;;;;13.07;9.32;;;;;;;9.60;100.00;101594.41;2087029;28;44190;-66
2022/05/21 01:54:06;;;;;;;14.65;9.02;;;;;;;9.57;100.00;101589.06;2086383;28;44892;-66
2022/05/21 01:55:08;;;;;;;13.43;9.02;;;;;;;9.57;100.00;101586.41;2087563;28;43627;-66
2022/05/21 01:56:13;;;;;;;15.90;10.00;;;;;;;9.58;100.00;101585.47;2086781;28;45052;-65
2022/05/21 01:57:15;;;;;;;15.25;10.38;;;;;;;9.60;100.00;101583.69;2086918;28;27349;-66
2022/05/21 01:58:17;;;;;;;15.75;10.63;;;;;;;9.63;100.00;101593.47;2085930;28;42946;-66
2022/05/21 01:59:19;;;;;;;13.23;10.18;;;;;;;9.60;100.00;101586.38;2087175;28;44333;-66
2022/05/21 02:00:21;;;;;;;17.98;11.13;;;;;;;9.60;100.00;101581.03;2086560;28;44333;-66
2022/05/21 02:01:24;;;;;;;13.57;11.00;;;;;;;9.58;100.00;101574.78;2087983;28;20941;-66
2022/05/21 02:02:25;;;;;;;17.95;12.05;;;;;;;9.61;100.00;101576.56;2087292;28;44862;-66
2022/05/21 02:03:27;;;;;;;20.48;12.68;;;;;;;9.60;100.00;101580.13;2079709;28;45509;-66
2022/05/21 02:04:29;;;;;;;18.80;11.55;;;;;;;9.60;100.00;101577.44;2071385;28;44921;-66
2022/05/21 02:05:31;;;;;;;19.23;13.10;;;;;;;9.58;100.00;101580.13;2071317;28;44502;-66
2022/05/21 02:06:33;;;;;;;16.85;11.73;;;;;;;9.54;100.00;101583.72;2079907;28;45213;-66
2022/05/21 02:07:35;;;;;;;19.45;11.15;;;;;;;9.50;100.00;101576.66;2080826;28;20038;-65
2022/05/21 02:08:36;;;;;;;18.63;12.15;;;;;;;9.47;100.00;101577.53;2080245;28;20042;-65
2022/05/21 02:09:40;;;;;;;18.23;12.73;;;;;;;9.43;100.00;101586.50;2088041;28;45574;-66
2022/05/21 02:10:44;;;;;;;18.48;13.45;;;;;;;9.43;100.00;101578.47;2088329;28;30985;-65
2022/05/21 02:11:45;;;;;;;17.75;13.35;;;;;;;9.45;100.00;101578.47;2088423;28;45667;-65
2022/05/21 02:12:48;;;;;;;18.48;13.13;;;;;;;9.49;100.00;101581.13;2087914;28;44835;-66
2022/05/21 02:13:50;;;;;;;22.73;14.10;;;;;;;9.46;100.00;101578.47;2089071;28;20093;-65
2022/05/21 02:14:51;;;;;;;17.38;12.88;;;;;;;9.40;100.00;101581.16;2087606;28;45592;-66
2022/05/21 02:15:53;;;;;;;17.45;13.75;;;;;;;9.38;100.00;101579.41;2087951;28;45725;-65
2022/05/21 02:16:55;;;;;;;17.75;12.93;;;;;;;9.42;100.00;101582.06;2087109;28;45301;-66
2022/05/21 02:17:59;;;;;;;18.67;13.32;;;;;;;9.41;100.00;101584.75;2089709;28;20053;-66
2022/05/21 02:19:02;;;;;;;25.48;13.57;;;;;;;9.41;100.00;101580.28;2079106;28;44847;-65
2022/05/21 02:20:04;;;;;;;21.48;14.77;;;;;;;9.41;100.00;101584.75;2080033;28;45106;-66
2022/05/21 02:21:07;;;;;;;19.05;13.25;;;;;;;9.42;100.00;101583.81;2087429;28;46201;-66
2022/05/21 02:22:09;;;;;;;18.75;13.65;;;;;;;9.41;100.00;101582.94;2087658;28;46312;-65
2022/05/21 02:23:11;;;;;;;21.10;14.30;;;;;;;9.37;100.00;101581.22;2087997;28;46523;-65
2022/05/21 02:24:13;;;;;;;17.58;12.75;;;;;;;9.37;100.00;101581.22;2088528;28;44153;-65
2022/05/21 02:25:16;;;;;;;24.45;15.75;;;;;;;9.38;100.00;101584.75;2088059;28;44265;-65
2022/05/21 02:26:18;;;;;;;18.38;12.98;;;;;;;9.31;100.00;101587.50;2088743;28;44851;-65
2022/05/21 02:27:19;;;;;;;26.15;15.10;;;;;;;9.33;100.00;101582.09;2087099;28;43118;-65
2022/05/21 02:28:21;;;;;;;19.88;13.20;;;;;;;9.29;100.00;101577.69;2087714;28;41037;-65
2022/05/21 02:29:23;;;;;;;22.23;15.02;;;;;;;9.35;100.00;101578.53;2088428;28;43250;-66
2022/05/21 02:30:25;;;;;;;23.98;15.38;;;;;;;9.31;100.00;101581.25;2088184;28;44252;-65
2022/05/21 02:31:27;;;;;;;19.55;15.23;;;;;;;9.30;100.00;101583.03;2088383;28;20034;-65
2022/05/21 02:32:28;;;;;;;25.98;16.25;;;;;;;9.37;100.00;101586.56;2089245;28;20120;-65
2022/05/21 02:33:30;;;;;;;24.73;17.95;;;;;;;9.40;100.00;101581.16;2088569;28;21012;-65
2022/05/21 02:34:32;;;;;;;27.77;17.33;;;;;;;9.41;100.00;101582.94;2088582;28;45891;-65
2022/05/21 02:35:34;;;;;;;25.20;18.25;;;;;;;9.42;100.00;101582.06;2087540;28;44178;-65
2022/05/21 02:39:34;;;;;;;28.88;20.05;;;;;;;9.57;100.00;101581.03;2062241;28;44303;-66
2022/05/21 02:40:36;;;;;;;29.35;21.08;;;;;;;9.60;100.00;101582.78;2073105;28;45650;-65
2022/05/21 02:41:37;;;;;;;29.70;21.58;;;;;;;9.67;100.00;101577.41;2087135;28;43937;-65
2022/05/21 02:42:48;;;;;;;29.08;21.08;;;;;;;9.66;100.00;101583.63;2079097;28;44969;-65
2022/05/21 02:43:51;;;;;;;35.90;23.02;;;;;;;9.67;100.00;101580.06;2080802;28;35897;-65
2022/05/21 02:44:54;;;;;;;33.70;23.67;;;;;;;9.73;100.00;101573.78;2088265;28;43948;-65
2022/05/21 02:45:58;;;;;;;35.45;24.02;;;;;;;9.76;100.00;101573.72;2087979;28;45962;-65
2022/05/21 02:47:00;;;;;;;38.63;23.90;;;;;;;9.84;100.00;101579.03;2088123;28;43180;-65
2022/05/21 02:48:01;;;;;;;36.35;24.67;;;;;;;9.91;100.00;101578.06;2087740;28;44676;-65
2022/05/21 02:49:03;;;;;;;37.17;25.50;;;;;;;9.90;100.00;101569.13;2088469;28;42387;-65
2022/05/21 02:50:08;;;;;;;31.95;23.45;;;;;;;9.93;100.00;101576.25;2079158;28;44478;-65
2022/05/21 02:51:11;;;;;;;34.65;25.08;;;;;;;9.94;100.00;101573.56;2079953;28;44776;-66
2022/05/21 02:52:13;;;;;;;36.35;25.55;;;;;;;9.98;100.00;101574.44;2087663;28;45007;-66
2022/05/21 02:53:19;;;;;;;31.52;24.92;;;;;;;9.99;100.00;101572.63;2088033;28;44854;-65
2022/05/21 02:54:24;;;;;;;37.30;27.13;;;;;;;10.04;100.00;101573.47;2086794;28;44295;-66
2022/05/21 02:55:26;;;;;;;37.25;26.23;;;;;;;10.05;100.00;101565.44;2086961;28;41382;-65
2022/05/21 02:56:30;;;;;;;37.13;26.33;;;;;;;10.09;100.00;101577.88;2087243;28;45156;-65
2022/05/21 02:57:31;;;;;;;38.17;26.10;;;;;;;10.11;100.00;101569.81;2088030;28;42457;-65
2022/05/21 02:58:36;;;;;;;38.78;26.38;;;;;;;10.11;100.00;101570.69;2087960;28;45603;-66
2022/05/21 02:59:39;;;;;;;37.03;26.38;;;;;;;10.16;100.00;101568.00;2087913;28;45642;-66
2022/05/21 03:00:42;;;;;;;39.60;27.45;;;;;;;10.17;100.00;101567.06;2087198;28;40053;-65
2022/05/21 03:01:44;;;;;;;36.40;26.85;;;;;;;10.21;100.00;101565.25;2087736;28;43919;-65
2022/05/21 03:02:46;;;;;;;40.85;26.45;;;;;;;10.23;100.00;101555.41;2087109;28;43405;-64
2022/05/21 03:03:48;;;;;;;36.47;25.23;;;;;;;10.27;100.00;101550.00;2088542;28;44607;-65
2022/05/21 03:04:50;;;;;;;38.72;27.85;;;;;;;10.28;100.00;101557.16;2087808;28;44868;-65
2022/05/21 03:05:51;;;;;;;33.08;25.88;;;;;;;10.30;100.00;101555.34;2087844;28;43962;-66
2022/05/21 03:06:56;;;;;;;37.10;27.42;;;;;;;10.35;100.00;101554.41;2087624;28;46398;-66
2022/05/21 03:08:00;;;;;;;38.25;27.10;;;;;;;10.37;100.00;101550.81;2088066;28;42872;-66
2022/05/21 03:10:29;;;;;;;34.53;26.40;;;;;;;10.41;100.00;101551.66;2082710;28;45989;-65
2022/05/21 03:11:31;;;;;;;41.38;26.85;;;;;;;10.42;100.00;101553.44;2087860;28;44003;-66
2022/05/21 03:12:32;;;;;;;37.03;26.83;;;;;;;10.43;100.00;101549.88;2087844;28;45096;-66
2022/05/21 03:13:34;;;;;;;35.33;26.13;;;;;;;10.43;100.00;101556.09;2086567;28;38966;-65
2022/05/21 03:14:37;;;;;;;38.33;26.95;;;;;;;10.45;100.00;101553.41;2087146;28;39419;-65
2022/05/21 03:15:41;;;;;;;37.60;28.45;;;;;;;10.48;100.00;101553.34;2088950;28;20052;-66
2022/05/21 03:16:42;;;;;;;42.97;27.83;;;;;;;10.50;100.00;101551.56;2088604;28;20504;-65
2022/05/21 03:17:47;;;;;;;39.90;27.98;;;;;;;10.53;100.00;101550.63;2086989;28;45901;-66
2022/05/21 03:18:49;;;;;;;41.53;26.70;;;;;;;10.55;100.00;101548.81;2079180;28;46173;-66
2022/05/21 03:19:51;;;;;;;40.97;28.73;;;;;;;10.55;100.00;101547.03;2079346;28;45658;-65
2022/05/21 03:20:54;;;;;;;41.58;27.90;;;;;;;10.56;100.00;101551.47;2083745;28;21017;-65
2022/05/21 03:21:58;;;;;;;41.25;27.98;;;;;;;10.56;100.00;101543.44;2088309;28;20034;-66
2022/05/21 03:22:59;;;;;;;37.47;27.80;;;;;;;10.59;100.00;101540.72;2087369;28;38107;-66
2022/05/21 03:24:02;;;;;;;40.40;28.33;;;;;;;10.63;100.00;101549.59;2088143;28;20115;-66
2022/05/21 03:25:04;;;;;;;38.83;27.25;;;;;;;10.64;100.00;101549.59;2088190;28;44188;-65
2022/05/21 03:26:06;;;;;;;43.88;30.23;;;;;;;10.64;100.00;101549.59;2087905;28;39135;-65
2022/05/21 03:27:07;;;;;;;41.08;29.20;;;;;;;10.67;100.00;101541.50;2088096;28;44760;-65
2022/05/21 03:28:17;;;;;;;46.97;29.63;;;;;;;10.68;100.00;101540.59;2078788;28;43837;-66
2022/05/21 03:29:20;;;;;;;43.90;29.10;;;;;;;10.69;100.00;101539.72;2073205;28;20168;-65
2022/05/21 03:30:27;;;;;;;40.05;28.55;;;;;;;10.70;100.00;101538.78;2071189;28;45356;-66
2022/05/21 03:31:28;;;;;;;41.60;29.08;;;;;;;10.73;100.00;101537.88;2071244;28;44817;-66
2022/05/21 03:32:32;;;;;;;44.83;29.75;;;;;;;10.76;100.00;101534.25;2081114;28;20160;-65
2022/05/21 03:33:34;;;;;;;46.83;29.88;;;;;;;10.79;100.00;101531.53;2087363;28;45921;-66
2022/05/21 03:34:36;;;;;;;46.28;30.88;;;;;;;10.82;100.00;101531.47;2087959;28;45969;-65
2022/05/21 03:35:38;;;;;;;45.97;31.42;;;;;;;10.84;100.00;101535.03;2087426;28;44209;-66
2022/05/21 03:36:42;;;;;;;43.47;31.67;;;;;;;10.87;100.00;101526.94;2088533;28;30049;-65
2022/05/21 03:37:47;;;;;;;50.78;32.00;;;;;;;10.88;100.00;101526.03;2088948;28;20041;-65
2022/05/21 03:38:49;;;;;;;47.42;31.92;;;;;;;10.91;100.00;101523.31;2088219;28;45142;-65
2022/05/21 03:39:51;;;;;;;47.58;33.15;;;;;;;10.91;100.00;101522.41;2088186;28;20049;-64
2022/05/21 03:40:53;;;;;;;46.65;32.92;;;;;;;10.93;100.00;101524.19;2088287;28;43249;-64
2022/05/21 03:41:54;;;;;;;47.40;31.73;;;;;;;10.92;100.00;101522.41;2087726;28;39530;-64
2022/05/21 03:42:57;;;;;;;43.70;32.35;;;;;;;10.93;100.00;101524.19;2088380;28;20041;-63
2022/05/21 03:44:00;;;;;;;44.28;31.40;;;;;;;10.94;100.00;101530.41;2087815;28;44117;-64
2022/05/21 03:45:02;;;;;;;44.75;32.28;;;;;;;10.94;100.00;101531.28;2078472;28;46535;-63
2022/05/21 03:46:04;;;;;;;48.47;34.05;;;;;;;10.96;100.00;101528.59;2079031;28;44420;-63
2022/05/21 03:47:06;;;;;;;50.03;34.60;;;;;;;10.97;100.00;101531.25;2079278;28;34053;-63
2022/05/21 03:48:08;;;;;;;45.42;34.22;;;;;;;10.99;100.00;101531.25;2086935;28;45827;-63
2022/05/21 03:49:10;;;;;;;48.72;34.83;;;;;;;10.98;100.00;101533.03;2088085;28;20033;-63
2022/05/21 03:50:16;;;;;;;52.78;35.92;;;;;;;10.98;100.00;101532.13;2086449;28;46598;-63
2022/05/21 03:51:18;;;;;;;48.03;35.28;;;;;;;10.97;100.00;101525.91;2079946;28;44190;-63
2022/05/21 03:52:20;;;;;;;52.58;36.30;;;;;;;10.99;100.00;101531.25;2079368;28;20141;-63
2022/05/21 03:53:22;;;;;;;50.47;36.25;;;;;;;10.97;100.00;101536.63;2079227;28;45674;-63
2022/05/21 03:54:24;;;;;;;51.25;36.55;;;;;;;10.98;100.00;101530.38;2079588;28;44353;-63
2022/05/21 03:55:26;;;;;;;48.35;35.85;;;;;;;10.97;100.00;101531.25;2070711;28;45300;-63
2022/05/21 03:56:28;;;;;;;57.08;37.88;;;;;;;10.97;100.00;101531.25;2070959;28;43152;-64
2022/05/21 03:57:30;;;;;;;50.88;36.92;;;;;;;10.98;100.00;101527.69;2070945;28;42953;-63
2022/05/21 03:58:33;;;;;;;56.95;37.60;;;;;;;11.03;100.00;101531.16;2071833;28;20185;-65
2022/05/21 03:59:35;;;;;;;53.00;37.03;;;;;;;11.02;100.00;101536.56;2070902;28;44461;-63
2022/05/21 04:00:38;;;;;;;54.55;37.45;;;;;;;10.99;100.00;101529.44;2070626;28;45606;-64
2022/05/21 04:01:45;;;;;;;48.88;36.50;;;;;;;11.00;100.00;101536.59;2079122;28;47348;-64
2022/05/21 04:02:46;;;;;;;53.83;36.42;;;;;;;11.03;100.00;101530.28;2079099;28;45128;-64
2022/05/21 04:03:54;;;;;;;56.60;39.10;;;;;;;11.03;100.00;101533.84;2079751;28;46175;-64
2022/05/21 04:04:56;;;;;;;57.40;38.47;;;;;;;11.02;100.00;101534.75;2078950;28;42201;-63
2022/05/21 04:06:03;;;;;;;60.47;38.45;;;;;;;11.03;100.00;101531.16;2071470;28;20049;-64
2022/05/21 04:07:05;;;;;;;61.17;40.03;;;;;;;11.04;100.00;101527.56;2071620;28;44899;-64
2022/05/21 04:08:07;;;;;;;57.00;39.05;;;;;;;11.06;100.00;101524.88;2079259;28;45325;-64
2022/05/21 04:09:10;;;;;;;55.28;38.92;;;;;;;11.06;100.00;101527.56;2079352;28;45021;-64
2022/05/21 04:10:15;;;;;;;56.97;40.90;;;;;;;11.05;100.00;101531.13;2079514;28;43392;-64
2022/05/21 04:11:16;;;;;;;56.45;40.80;;;;;;;11.07;100.00;101527.53;2069861;28;45497;-65
2022/05/21 04:12:18;;;;;;;56.47;40.55;;;;;;;11.07;100.00;101526.63;2070294;28;46539;-64
2022/05/21 04:13:22;;;;;;;63.35;40.75;;;;;;;11.06;100.00;101528.44;2079152;28;40105;-64
2022/05/21 04:14:28;;;;;;;60.20;41.78;;;;;;;11.09;100.00;101524.84;2079577;28;44804;-64
2022/05/21 04:15:29;;;;;;;52.22;40.15;;;;;;;11.09;100.00;101524.84;2079026;28;43163;-65
2022/05/21 04:16:31;;;;;;;58.60;39.90;;;;;;;11.11;100.00;101524.78;2079214;28;45236;-64
2022/05/21 04:17:34;;;;;;;53.72;38.85;;;;;;;11.14;100.00;101530.09;2069955;28;45017;-63
2022/05/21 04:18:35;;;;;;;60.55;41.38;;;;;;;11.14;100.00;101525.63;2070538;28;45534;-65
2022/05/21 04:19:39;;;;;;;55.03;39.25;;;;;;;11.14;100.00;101525.63;2078375;28;46036;-64
2022/05/21 04:20:42;;;;;;;62.30;42.92;;;;;;;11.17;100.00;101520.22;2079901;28;20037;-65
2022/05/21 04:21:44;;;;;;;61.10;41.38;;;;;;;11.17;100.00;101522.03;2079654;28;45297;-64
2022/05/21 04:22:45;;;;;;;58.78;42.03;;;;;;;11.18;100.00;101515.75;2079266;28;46510;-64
2022/05/21 04:23:47;;;;;;;58.58;41.22;;;;;;;11.18;100.00;101522.00;2078778;28;44737;-64
2022/05/21 04:24:49;;;;;;;57.80;40.47;;;;;;;11.19;100.00;101514.84;2079593;28;45577;-64
2022/05/21 04:25:50;;;;;;;58.58;42.33;;;;;;;11.20;100.00;101521.97;2078867;28;43425;-65
2022/05/21 04:26:53;;;;;;;62.13;42.13;;;;;;;11.20;100.00;101520.19;2078903;28;44149;-65
2022/05/21 04:27:55;;;;;;;56.88;40.65;;;;;;;11.22;100.00;101521.03;2079199;28;46088;-64
2022/05/21 04:28:56;;;;;;;55.15;40.40;;;;;;;11.23;100.00;101528.19;2079147;28;44790;-65
2022/05/21 04:29:58;;;;;;;57.05;39.58;;;;;;;11.26;100.00;101522.75;2078898;28;45218;-65
2022/05/21 04:30:59;;;;;;;59.25;40.38;;;;;;;11.25;100.00;101520.09;2079303;28;45855;-64
2022/05/21 04:32:01;;;;;;;55.28;38.78;;;;;;;11.26;100.00;101522.75;2070002;28;38359;-65
2022/05/21 04:33:03;;;;;;;55.60;41.17;;;;;;;11.27;100.00;101515.63;2070735;28;44415;-64
2022/05/21 04:34:05;;;;;;;54.40;40.20;;;;;;;11.28;100.00;101520.03;2079301;28;43397;-65
2022/05/21 04:35:10;;;;;;;55.50;40.25;;;;;;;11.31;100.00;101509.28;2080055;28;20037;-64
2022/05/21 04:36:17;;;;;;;56.13;39.78;;;;;;;11.34;100.00;101511.00;2069808;28;43481;-64
2022/05/21 04:37:21;;;;;;;54.47;39.92;;;;;;;11.36;100.00;101510.09;2072393;28;40149;-65
2022/05/21 04:38:22;;;;;;;53.00;40.50;;;;;;;11.39;100.00;101517.19;2078489;28;46068;-64
2022/05/21 04:39:24;;;;;;;57.65;40.25;;;;;;;11.38;100.00;101516.31;2079365;28;43539;-64
2022/05/21 04:40:26;;;;;;;53.28;38.83;;;;;;;11.39;100.00;101514.50;2069933;28;46294;-65
2022/05/21 04:41:27;;;;;;;54.60;40.10;;;;;;;11.41;100.00;101510.00;2070282;28;45980;-65
2022/05/21 04:42:31;;;;;;;48.67;37.67;;;;;;;11.42;100.00;101515.34;2079075;28;45105;-64
2022/05/21 04:43:34;;;;;;;51.72;38.00;;;;;;;11.41;100.00;101516.25;2070685;28;46344;-64
2022/05/21 04:44:35;;;;;;;49.03;38.35;;;;;;;11.44;100.00;101526.91;2062894;28;44609;-65
2022/05/21 04:45:37;;;;;;;49.78;36.40;;;;;;;11.46;100.00;101516.16;2070508;28;45566;-64
2022/05/21 04:46:39;;;;;;;55.90;40.58;;;;;;;11.46;100.00;101521.53;2062222;28;46740;-65
2022/05/21 04:47:41;;;;;;;54.25;38.58;;;;;;;11.45;100.00;101512.63;2062948;28;44572;-65
2022/05/21 04:48:44;;;;;;;46.10;37.60;;;;;;;11.46;100.00;101530.44;2078865;28;43083;-65
2022/05/21 04:50:07;;;;;;;51.25;36.20;;;;;;;11.47;100.00;101515.28;2079391;28;46277;-65
2022/05/21 04:51:08;;;;;;;47.38;35.67;;;;;;;11.48;100.00;101519.69;2078845;28;41537;-65
2022/05/21 04:52:10;;;;;;;51.30;36.42;;;;;;;11.51;100.00;101521.47;2078962;28;46191;-64
2022/05/21 04:53:12;;;;;;;48.88;35.40;;;;;;;11.53;100.00;101519.63;2070135;28;44527;-65
2022/05/21 04:54:13;;;;;;;44.33;35.70;;;;;;;11.56;100.00;101519.59;2070786;28;45592;-64
2022/05/21 04:55:16;;;;;;;50.45;36.95;;;;;;;11.58;100.00;101523.13;2078957;28;44329;-65